sensor_id;sensor_type;location;lat;lon;timestamp;pressure;altitude;pressure_sealevel;temperature;humidity
45369;BME280;51342;55.250;37.668;2023-05-01T00:04:13;98714.75;;;6.58;79.72
45369;BME280;51342;55.250;37.668;2023-05-01T00:06:44;98707.81;;;6.57;79.83
45369;BME280;51342;55.250;37.668;2023-05-01T00:09:16;98708.09;;;6.62;79.56
45369;BME280;51342;55.250;37.668;2023-05-01T00:11:48;98709.78;;;6.61;79.74
45369;BME280;51342;55.250;37.668;2023-05-01T00:14:19;98701.25;;;6.62;79.82
45369;BME280;51342;55.250;37.668;2023-05-01T00:16:51;98694.34;;;6.61;79.53
45369;BME280;51342;55.250;37.668;2023-05-01T00:19:22;98697.88;;;6.63;79.80
45369;BME280;51342;55.250;37.668;2023-05-01T00:21:53;98693.66;;;6.64;79.51
45369;BME280;51342;55.250;37.668;2023-05-01T00:24:25;98693.66;;;6.64;79.64
45369;BME280;51342;55.250;37.668;2023-05-01T00:26:57;98695.41;;;6.65;79.28
45369;BME280;51342;55.250;37.668;2023-05-01T00:29:29;98677.31;;;6.63;79.23
45369;BME280;51342;55.250;37.668;2023-05-01T00:32:00;98684.16;;;6.63;79.35
45369;BME280;51342;55.250;37.668;2023-05-01T00:34:31;98683.38;;;6.64;79.23
45369;BME280;51342;55.250;37.668;2023-05-01T00:37:03;98679.88;;;6.63;79.35
45369;BME280;51342;55.250;37.668;2023-05-01T00:39:34;98678.22;;;6.64;79.55
45369;BME280;51342;55.250;37.668;2023-05-01T00:42:06;98673.16;;;6.66;79.41
45369;BME280;51342;55.250;37.668;2023-05-01T00:44:37;98671.47;;;6.66;79.48
45369;BME280;51342;55.250;37.668;2023-05-01T00:47:09;98658.56;;;6.64;79.55
45369;BME280;51342;55.250;37.668;2023-05-01T00:49:44;98647.41;;;6.64;79.33
45369;BME280;51342;55.250;37.668;2023-05-01T00:52:16;98632.66;;;6.61;79.43
45369;BME280;51342;55.250;37.668;2023-05-01T00:54:47;98634.63;;;6.66;79.70
45369;BME280;51342;55.250;37.668;2023-05-01T00:57:22;98636.13;;;6.62;79.25
45369;BME280;51342;55.250;37.668;2023-05-01T00:59:54;98628.41;;;6.62;79.66
45369;BME280;51342;55.250;37.668;2023-05-01T01:02:25;98609.47;;;6.60;79.58
45369;BME280;51342;55.250;37.668;2023-05-01T01:04:57;98588.91;;;6.60;79.45
45369;BME280;51342;55.250;37.668;2023-05-01T01:07:39;98583.25;;;6.51;79.31
45369;BME280;51342;55.250;37.668;2023-05-01T01:10:34;98588.25;;;6.48;79.79
45369;BME280;51342;55.250;37.668;2023-05-01T01:13:13;98584.69;;;6.46;79.83
45369;BME280;51342;55.250;37.668;2023-05-01T01:18:54;98585.16;;;6.38;79.80
45369;BME280;51342;55.250;37.668;2023-05-01T01:21:31;98598.19;;;6.42;79.82
45369;BME280;51342;55.250;37.668;2023-05-01T01:26:59;98607.19;;;6.35;79.72
45369;BME280;51342;55.250;37.668;2023-05-01T01:29:42;98610.91;;;6.40;79.63
45369;BME280;51342;55.250;37.668;2023-05-01T01:35:02;98619.69;;;6.44;79.93
45369;BME280;51342;55.250;37.668;2023-05-01T01:37:47;98617.03;;;6.42;79.55
45369;BME280;51342;55.250;37.668;2023-05-01T01:40:24;98619.63;;;6.42;79.63
45369;BME280;51342;55.250;37.668;2023-05-01T01:43:03;98645.19;;;6.41;79.32
45369;BME280;51342;55.250;37.668;2023-05-01T01:45:38;98653.09;;;6.44;79.81
45369;BME280;51342;55.250;37.668;2023-05-01T01:48:17;98651.25;;;6.41;79.60
45369;BME280;51342;55.250;37.668;2023-05-01T01:50:52;98650.53;;;6.44;79.72
45369;BME280;51342;55.250;37.668;2023-05-01T01:53:27;98653.97;;;6.44;79.80
45369;BME280;51342;55.250;37.668;2023-05-01T01:56:01;98664.44;;;6.47;79.41
45369;BME280;51342;55.250;37.668;2023-05-01T01:58:35;98656.81;;;6.49;79.74
45369;BME280;51342;55.250;37.668;2023-05-01T02:01:09;98660.25;;;6.49;79.47
45369;BME280;51342;55.250;37.668;2023-05-01T02:03:43;98663.72;;;6.50;79.64
45369;BME280;51342;55.250;37.668;2023-05-01T02:06:16;98669.03;;;6.53;79.21
45369;BME280;51342;55.250;37.668;2023-05-01T02:08:48;98662.09;;;6.52;79.31
45369;BME280;51342;55.250;37.668;2023-05-01T02:11:21;98671.69;;;6.54;79.45
45369;BME280;51342;55.250;37.668;2023-05-01T02:13:55;98664.59;;;6.50;79.53
45369;BME280;51342;55.250;37.668;2023-05-01T02:16:27;98669.19;;;6.56;79.16
45369;BME280;51342;55.250;37.668;2023-05-01T02:19:03;98672.72;;;6.58;79.23
45369;BME280;51342;55.250;37.668;2023-05-01T02:21:36;98687.53;;;6.62;79.33
45369;BME280;51342;55.250;37.668;2023-05-01T02:24:08;98685.94;;;6.64;79.49
45369;BME280;51342;55.250;37.668;2023-05-01T02:26:42;98689.47;;;6.66;79.29
45369;BME280;51342;55.250;37.668;2023-05-01T02:29:14;98682.56;;;6.65;79.50
45369;BME280;51342;55.250;37.668;2023-05-01T02:31:45;98691.31;;;6.69;79.52
45369;BME280;51342;55.250;37.668;2023-05-01T02:34:17;98690.44;;;6.68;79.24
45369;BME280;51342;55.250;37.668;2023-05-01T02:36:48;98677.69;;;6.70;79.24
45369;BME280;51342;55.250;37.668;2023-05-01T02:39:20;98680.16;;;6.68;79.28
45369;BME280;51342;55.250;37.668;2023-05-01T02:41:53;98680.34;;;6.71;79.41
45369;BME280;51342;55.250;37.668;2023-05-01T02:44:26;98676.16;;;6.73;79.13
45369;BME280;51342;55.250;37.668;2023-05-01T02:47:00;98670.22;;;6.74;79.27
45369;BME280;51342;55.250;37.668;2023-05-01T02:49:32;98665.00;;;6.73;79.24
45369;BME280;51342;55.250;37.668;2023-05-01T02:52:04;98663.38;;;6.75;79.47
45369;BME280;51342;55.250;37.668;2023-05-01T02:54:36;98671.19;;;6.76;79.26
45369;BME280;51342;55.250;37.668;2023-05-01T02:57:09;98676.59;;;6.81;78.98
45369;BME280;51342;55.250;37.668;2023-05-01T02:59:41;98674.13;;;6.82;79.22
45369;BME280;51342;55.250;37.668;2023-05-01T03:02:12;98675.00;;;6.83;78.78
45369;BME280;51342;55.250;37.668;2023-05-01T03:04:43;98694.06;;;6.86;79.11
45369;BME280;51342;55.250;37.668;2023-05-01T03:07:15;98692.44;;;6.88;79.20
45369;BME280;51342;55.250;37.668;2023-05-01T03:09:46;98707.94;;;6.90;78.88
45369;BME280;51342;55.250;37.668;2023-05-01T03:12:18;98713.16;;;6.91;79.40
45369;BME280;51342;55.250;37.668;2023-05-01T03:14:49;98710.78;;;6.95;79.21
45369;BME280;51342;55.250;37.668;2023-05-01T03:17:21;98705.78;;;6.98;79.35
45369;BME280;51342;55.250;37.668;2023-05-01T03:19:53;98708.47;;;6.99;78.95
45369;BME280;51342;55.250;37.668;2023-05-01T03:22:28;98715.38;;;7.00;79.34
45369;BME280;51342;55.250;37.668;2023-05-01T03:24:59;98708.53;;;7.01;79.24
45369;BME280;51342;55.250;37.668;2023-05-01T03:27:31;98706.16;;;7.04;79.46
45369;BME280;51342;55.250;37.668;2023-05-01T03:30:03;98704.53;;;7.06;79.34
45369;BME280;51342;55.250;37.668;2023-05-01T03:32:38;98703.72;;;7.07;79.67
45369;BME280;51342;55.250;37.668;2023-05-01T03:35:12;98707.38;;;7.10;79.45
45369;BME280;51342;55.250;37.668;2023-05-01T03:37:44;98712.03;;;7.17;79.75
45369;BME280;51342;55.250;37.668;2023-05-01T03:40:20;98716.44;;;7.20;79.30
45369;BME280;51342;55.250;37.668;2023-05-01T03:43:26;98708.59;;;7.17;79.57
45369;BME280;51342;55.250;37.668;2023-05-01T03:45:59;98702.72;;;7.20;79.52
45369;BME280;51342;55.250;37.668;2023-05-01T03:48:31;98706.34;;;7.23;79.70
45369;BME280;51342;55.250;37.668;2023-05-01T03:51:02;98699.50;;;7.24;79.88
45369;BME280;51342;55.250;37.668;2023-05-01T03:53:34;98703.94;;;7.26;79.30
45369;BME280;51342;55.250;37.668;2023-05-01T03:56:09;98697.25;;;7.30;79.35
45369;BME280;51342;55.250;37.668;2023-05-01T03:58:40;98712.06;;;7.34;79.42
45369;BME280;51342;55.250;37.668;2023-05-01T04:01:12;98708.63;;;7.33;79.13
45369;BME280;51342;55.250;37.668;2023-05-01T04:03:47;98719.25;;;7.39;79.43
45369;BME280;51342;55.250;37.668;2023-05-01T04:06:19;98719.25;;;7.39;79.37
45369;BME280;51342;55.250;37.668;2023-05-01T04:08:50;98722.69;;;7.40;79.31
45369;BME280;51342;55.250;37.668;2023-05-01T04:11:21;98724.63;;;7.44;79.00
45369;BME280;51342;55.250;37.668;2023-05-01T04:13:53;98722.13;;;7.46;79.55
45369;BME280;51342;55.250;37.668;2023-05-01T04:16:24;98729.03;;;7.47;79.11
45369;BME280;51342;55.250;37.668;2023-05-01T04:18:56;98731.88;;;7.51;79.40
45369;BME280;51342;55.250;37.668;2023-05-01T04:21:28;98730.25;;;7.53;79.23
45369;BME280;51342;55.250;37.668;2023-05-01T04:23:59;98744.00;;;7.54;78.85
45369;BME280;51342;55.250;37.668;2023-05-01T04:26:30;98747.47;;;7.54;79.04
45369;BME280;51342;55.250;37.668;2023-05-01T04:29:02;98749.16;;;7.54;79.40
45369;BME280;51342;55.250;37.668;2023-05-01T04:31:34;98747.47;;;7.54;78.97
45369;BME280;51342;55.250;37.668;2023-05-01T04:34:06;98752.53;;;7.53;78.99
45369;BME280;51342;55.250;37.668;2023-05-01T04:36:39;98737.91;;;7.52;79.01
45369;BME280;51342;55.250;37.668;2023-05-01T04:39:11;98743.22;;;7.55;78.88
45369;BME280;51342;55.250;37.668;2023-05-01T04:41:43;98733.81;;;7.55;78.77
45369;BME280;51342;55.250;37.668;2023-05-01T04:44:14;98733.97;;;7.58;79.12
45369;BME280;51342;55.250;37.668;2023-05-01T04:46:45;98740.16;;;7.62;78.79
45369;BME280;51342;55.250;37.668;2023-05-01T04:49:17;98729.06;;;7.63;78.78
45369;BME280;51342;55.250;37.668;2023-05-01T04:51:48;98731.81;;;7.66;78.56
45369;BME280;51342;55.250;37.668;2023-05-01T04:54:21;98733.59;;;7.67;79.01
45369;BME280;51342;55.250;37.668;2023-05-01T04:56:54;98740.63;;;7.71;78.95
45369;BME280;51342;55.250;37.668;2023-05-01T04:59:25;98735.59;;;7.73;78.66
45369;BME280;51342;55.250;37.668;2023-05-01T05:01:58;98727.69;;;7.69;78.76
45369;BME280;51342;55.250;37.668;2023-05-01T05:04:30;98741.00;;;7.77;78.29
45369;BME280;51342;55.250;37.668;2023-05-01T05:07:01;98742.75;;;7.78;78.27
45369;BME280;51342;55.250;37.668;2023-05-01T05:09:51;98738.50;;;7.79;78.20
45369;BME280;51342;55.250;37.668;2023-05-01T05:12:22;98741.22;;;7.82;78.28
45369;BME280;51342;55.250;37.668;2023-05-01T05:14:54;98738.81;;;7.85;78.21
45369;BME280;51342;55.250;37.668;2023-05-01T05:17:25;98732.78;;;7.84;78.22
45369;BME280;51342;55.250;37.668;2023-05-01T05:19:57;98730.34;;;7.87;78.43
45369;BME280;51342;55.250;37.668;2023-05-01T05:22:29;98738.25;;;7.90;78.13
45369;BME280;51342;55.250;37.668;2023-05-01T05:25:20;98731.47;;;7.92;78.66
45369;BME280;51342;55.250;37.668;2023-05-01T05:27:51;98741.22;;;7.98;78.60
45369;BME280;51342;55.250;37.668;2023-05-01T05:30:35;98744.03;;;8.03;78.57
45369;BME280;51342;55.250;37.668;2023-05-01T05:33:09;98742.56;;;8.08;78.42
45369;BME280;51342;55.250;37.668;2023-05-01T05:35:41;98745.28;;;8.11;78.42
45369;BME280;51342;55.250;37.668;2023-05-01T05:38:12;98746.41;;;8.16;78.65
45369;BME280;51342;55.250;37.668;2023-05-01T05:40:45;98761.31;;;8.21;78.44
45369;BME280;51342;55.250;37.668;2023-05-01T05:43:16;98762.34;;;8.25;77.90
45369;BME280;51342;55.250;37.668;2023-05-01T05:46:00;98763.41;;;8.29;77.81
45369;BME280;51342;55.250;37.668;2023-05-01T05:48:32;98763.47;;;8.30;77.86
45369;BME280;51342;55.250;37.668;2023-05-01T05:51:04;98755.75;;;8.30;77.58
45369;BME280;51342;55.250;37.668;2023-05-01T05:53:54;98760.09;;;8.31;77.31
45369;BME280;51342;55.250;37.668;2023-05-01T05:56:26;98756.34;;;8.41;77.46
45369;BME280;51342;55.250;37.668;2023-05-01T05:58:57;98769.59;;;8.48;77.09
45369;BME280;51342;55.250;37.668;2023-05-01T06:01:41;98760.16;;;8.49;77.02
45369;BME280;51342;55.250;37.668;2023-05-01T06:04:25;98768.31;;;8.57;77.29
45369;BME280;51342;55.250;37.668;2023-05-01T06:06:57;98778.91;;;8.63;77.29
45369;BME280;51342;55.250;37.668;2023-05-01T06:09:29;98773.03;;;8.65;77.00
45369;BME280;51342;55.250;37.668;2023-05-01T06:12:00;98766.09;;;8.64;76.61
45369;BME280;51342;55.250;37.668;2023-05-01T06:14:35;98754.84;;;8.62;76.43
45369;BME280;51342;55.250;37.668;2023-05-01T06:17:07;98771.50;;;8.69;76.37
45369;BME280;51342;55.250;37.668;2023-05-01T06:19:38;98784.69;;;8.75;76.42
45369;BME280;51342;55.250;37.668;2023-05-01T06:22:13;98781.53;;;8.81;76.80
45369;BME280;51342;55.250;37.668;2023-05-01T06:25:08;98798.81;;;8.83;76.64
45369;BME280;51342;55.250;37.668;2023-05-01T06:27:52;98804.88;;;8.84;76.39
45369;BME280;51342;55.250;37.668;2023-05-01T06:30:26;98813.00;;;8.91;76.28
45369;BME280;51342;55.250;37.668;2023-05-01T06:32:57;98801.88;;;8.92;75.87
45369;BME280;51342;55.250;37.668;2023-05-01T06:35:29;98811.69;;;8.99;75.94
45369;BME280;51342;55.250;37.668;2023-05-01T06:38:00;98805.63;;;8.99;75.61
45369;BME280;51342;55.250;37.668;2023-05-01T06:40:33;98813.53;;;9.02;75.35
45369;BME280;51342;55.250;37.668;2023-05-01T06:43:05;98809.09;;;8.99;75.74
45369;BME280;51342;55.250;37.668;2023-05-01T06:45:36;98805.69;;;9.00;75.80
45369;BME280;51342;55.250;37.668;2023-05-01T06:48:10;98803.22;;;9.02;75.84
45369;BME280;51342;55.250;37.668;2023-05-01T06:50:41;98802.69;;;9.09;76.11
45369;BME280;51342;55.250;37.668;2023-05-01T06:53:13;98807.34;;;9.16;76.29
45369;BME280;51342;55.250;37.668;2023-05-01T06:55:45;98808.50;;;9.23;76.26
45369;BME280;51342;55.250;37.668;2023-05-01T06:58:16;98807.97;;;9.30;75.76
45369;BME280;51342;55.250;37.668;2023-05-01T07:00:48;98819.56;;;9.38;75.85
45369;BME280;51342;55.250;37.668;2023-05-01T07:03:19;98830.34;;;9.47;75.20
45369;BME280;51342;55.250;37.668;2023-05-01T07:05:51;98829.00;;;9.55;75.25
45369;BME280;51342;55.250;37.668;2023-05-01T07:08:22;98834.53;;;9.63;75.26
45369;BME280;51342;55.250;37.668;2023-05-01T07:10:54;98831.34;;;9.69;74.71
45369;BME280;51342;55.250;37.668;2023-05-01T07:13:25;98820.28;;;9.71;74.34
45369;BME280;51342;55.250;37.668;2023-05-01T07:15:57;98832.59;;;9.77;74.09
45369;BME280;51342;55.250;37.668;2023-05-01T07:18:28;98837.00;;;9.79;74.23
45369;BME280;51342;55.250;37.668;2023-05-01T07:21:00;98845.03;;;9.86;73.90
45369;BME280;51342;55.250;37.668;2023-05-01T07:23:31;98842.69;;;9.90;73.74
45369;BME280;51342;55.250;37.668;2023-05-01T07:26:02;98839.50;;;9.96;73.98
45369;BME280;51342;55.250;37.668;2023-05-01T07:28:35;98852.84;;;10.05;73.21
45369;BME280;51342;55.250;37.668;2023-05-01T07:31:10;98854.00;;;10.12;72.64
45369;BME280;51342;55.250;37.668;2023-05-01T07:33:41;98862.16;;;10.21;73.27
45369;BME280;51342;55.250;37.668;2023-05-01T07:36:12;98864.97;;;10.25;72.86
45369;BME280;51342;55.250;37.668;2023-05-01T07:38:44;98871.59;;;10.38;72.96
45369;BME280;51342;55.250;37.668;2023-05-01T07:41:15;98867.84;;;10.51;71.92
45369;BME280;51342;55.250;37.668;2023-05-01T07:43:47;98869.31;;;10.65;72.36
45369;BME280;51342;55.250;37.668;2023-05-01T07:46:18;98871.75;;;10.81;71.44
45369;BME280;51342;55.250;37.668;2023-05-01T07:48:49;98874.03;;;10.95;71.04
45369;BME280;51342;55.250;37.668;2023-05-01T07:51:21;98878.94;;;11.08;70.90
45369;BME280;51342;55.250;37.668;2023-05-01T07:53:53;98874.94;;;11.16;70.45
45369;BME280;51342;55.250;37.668;2023-05-01T07:56:25;98880.72;;;11.30;69.05
45369;BME280;51342;55.250;37.668;2023-05-01T07:58:57;98888.97;;;11.42;68.15
45369;BME280;51342;55.250;37.668;2023-05-01T08:01:28;98886.88;;;11.54;67.85
45369;BME280;51342;55.250;37.668;2023-05-01T08:03:59;98884.78;;;11.66;68.39
45369;BME280;51342;55.250;37.668;2023-05-01T08:06:31;98884.31;;;11.77;67.71
45369;BME280;51342;55.250;37.668;2023-05-01T08:09:02;98880.44;;;11.86;67.74
45369;BME280;51342;55.250;37.668;2023-05-01T08:11:34;98880.84;;;11.97;66.98
45369;BME280;51342;55.250;37.668;2023-05-01T08:14:29;98885.53;;;12.07;66.65
45369;BME280;51342;55.250;37.668;2023-05-01T08:17:00;98894.56;;;12.17;66.94
45369;BME280;51342;55.250;37.668;2023-05-01T08:19:32;98893.91;;;12.23;65.02
45369;BME280;51342;55.250;37.668;2023-05-01T08:22:03;98890.66;;;12.28;64.17
45369;BME280;51342;55.250;37.668;2023-05-01T08:24:35;98897.91;;;12.37;63.44
45369;BME280;51342;55.250;37.668;2023-05-01T08:27:18;98889.41;;;12.41;63.38
45369;BME280;51342;55.250;37.668;2023-05-01T08:29:50;98885.16;;;12.43;62.33
45369;BME280;51342;55.250;37.668;2023-05-01T08:32:21;98894.72;;;12.44;61.95
45369;BME280;51342;55.250;37.668;2023-05-01T08:34:52;98899.91;;;12.44;61.90
45369;BME280;51342;55.250;37.668;2023-05-01T08:37:24;98891.94;;;12.39;61.41
45369;BME280;51342;55.250;37.668;2023-05-01T08:39:56;98900.50;;;12.37;60.96
45369;BME280;51342;55.250;37.668;2023-05-01T08:42:28;98901.09;;;12.30;60.23
45369;BME280;51342;55.250;37.668;2023-05-01T08:45:00;98899.09;;;12.23;58.74
45369;BME280;51342;55.250;37.668;2023-05-01T08:47:35;98914.53;;;12.19;60.56
45369;BME280;51342;55.250;37.668;2023-05-01T08:50:12;98909.22;;;12.16;61.74
45369;BME280;51342;55.250;37.668;2023-05-01T08:52:45;98915.34;;;12.18;62.12
45369;BME280;51342;55.250;37.668;2023-05-01T08:55:18;98915.31;;;12.17;62.13
45369;BME280;51342;55.250;37.668;2023-05-01T08:57:51;98919.47;;;12.13;61.59
45369;BME280;51342;55.250;37.668;2023-05-01T09:00:24;98932.34;;;12.10;61.88
45369;BME280;51342;55.250;37.668;2023-05-01T09:02:59;98924.19;;;12.01;61.80
45369;BME280;51342;55.250;37.668;2023-05-01T09:05:32;98931.97;;;12.01;62.03
45369;BME280;51342;55.250;37.668;2023-05-01T09:08:03;98933.81;;;12.04;61.94
45369;BME280;51342;55.250;37.668;2023-05-01T09:10:41;98944.03;;;12.01;61.81
45369;BME280;51342;55.250;37.668;2023-05-01T09:13:14;98952.00;;;12.05;61.92
45369;BME280;51342;55.250;37.668;2023-05-01T09:15:45;98947.72;;;12.06;61.10
45369;BME280;51342;55.250;37.668;2023-05-01T09:18:30;98953.91;;;12.09;61.86
45369;BME280;51342;55.250;37.668;2023-05-01T09:21:01;98948.97;;;12.15;60.57
45369;BME280;51342;55.250;37.668;2023-05-01T09:23:33;98950.06;;;12.22;61.59
45369;BME280;51342;55.250;37.668;2023-05-01T09:26:07;98952.38;;;12.37;61.44
45369;BME280;51342;55.250;37.668;2023-05-01T09:28:40;98955.44;;;12.49;62.12
45369;BME280;51342;55.250;37.668;2023-05-01T09:31:25;98952.38;;;12.59;61.50
45369;BME280;51342;55.250;37.668;2023-05-01T09:34:02;98950.09;;;12.68;60.93
45369;BME280;51342;55.250;37.668;2023-05-01T09:36:33;98948.56;;;12.73;60.20
45369;BME280;51342;55.250;37.668;2023-05-01T09:39:22;98957.94;;;12.70;59.89
45369;BME280;51342;55.250;37.668;2023-05-01T09:41:54;98955.50;;;12.74;60.16
45369;BME280;51342;55.250;37.668;2023-05-01T09:44:26;98947.66;;;12.73;58.34
45369;BME280;51342;55.250;37.668;2023-05-01T09:46:57;98957.13;;;12.71;59.90
45369;BME280;51342;55.250;37.668;2023-05-01T09:49:45;98971.78;;;12.70;58.69
45369;BME280;51342;55.250;37.668;2023-05-01T09:52:18;98968.03;;;12.62;57.58
45369;BME280;51342;55.250;37.668;2023-05-01T09:54:49;98974.00;;;12.60;58.70
45369;BME280;51342;55.250;37.668;2023-05-01T09:57:34;98968.69;;;12.57;59.25
45369;BME280;51342;55.250;37.668;2023-05-01T10:00:09;98975.00;;;12.63;59.53
45369;BME280;51342;55.250;37.668;2023-05-01T10:02:42;98982.78;;;12.63;59.30
45369;BME280;51342;55.250;37.668;2023-05-01T10:05:14;98982.59;;;12.59;58.88
45369;BME280;51342;55.250;37.668;2023-05-01T10:07:57;98980.72;;;12.55;58.86
45369;BME280;51342;55.250;37.668;2023-05-01T10:10:28;98988.78;;;12.62;59.42
45369;BME280;51342;55.250;37.668;2023-05-01T10:13:20;98979.25;;;12.61;59.29
45369;BME280;51342;55.250;37.668;2023-05-01T10:15:51;98983.09;;;12.71;59.34
45369;BME280;51342;55.250;37.668;2023-05-01T10:18:24;98983.00;;;12.69;57.71
45369;BME280;51342;55.250;37.668;2023-05-01T10:20:56;98990.75;;;12.68;58.18
45369;BME280;51342;55.250;37.668;2023-05-01T10:23:28;98982.06;;;12.67;57.96
45369;BME280;51342;55.250;37.668;2023-05-01T10:26:00;98989.16;;;12.71;57.59
45369;BME280;51342;55.250;37.668;2023-05-01T10:28:33;98990.91;;;12.72;58.59
45369;BME280;51342;55.250;37.668;2023-05-01T10:31:05;98996.97;;;12.73;58.41
45369;BME280;51342;55.250;37.668;2023-05-01T10:33:38;98998.47;;;12.66;58.35
45369;BME280;51342;55.250;37.668;2023-05-01T10:39:04;99010.84;;;12.51;58.61
45369;BME280;51342;55.250;37.668;2023-05-01T10:44:28;99017.97;;;12.34;58.95
45369;BME280;51342;55.250;37.668;2023-05-01T10:50:20;99033.31;;;12.07;58.90
45369;BME280;51342;55.250;37.668;2023-05-01T10:55:56;99046.19;;;11.64;59.11
45369;BME280;51342;55.250;37.668;2023-05-01T11:09:43;99075.28;;;10.81;61.27
45369;BME280;51342;55.250;37.668;2023-05-01T11:15:09;99092.84;;;10.69;63.10
45369;BME280;51342;55.250;37.668;2023-05-01T11:20:44;99105.63;;;10.66;63.07
45369;BME280;51342;55.250;37.668;2023-05-01T11:23:04;99117.16;;;10.54;62.88
45369;BME280;51342;55.250;37.668;2023-05-01T11:25:36;99123.50;;;10.43;63.28
45369;BME280;51342;55.250;37.668;2023-05-01T11:28:32;99137.53;;;10.30;63.67
45369;BME280;51342;55.250;37.668;2023-05-01T11:31:04;99141.75;;;10.28;63.56
45369;BME280;51342;55.250;37.668;2023-05-01T11:33:47;99136.84;;;10.17;63.98
45369;BME280;51342;55.250;37.668;2023-05-01T11:36:19;99144.66;;;10.18;64.53
45369;BME280;51342;55.250;37.668;2023-05-01T11:38:52;99153.06;;;10.14;64.20
45369;BME280;51342;55.250;37.668;2023-05-01T11:41:26;99162.84;;;10.03;63.48
45369;BME280;51342;55.250;37.668;2023-05-01T11:43:58;99165.81;;;9.93;63.78
45369;BME280;51342;55.250;37.668;2023-05-01T11:46:31;99177.59;;;9.88;64.27
45369;BME280;51342;55.250;37.668;2023-05-01T11:49:03;99179.00;;;9.81;64.21
45369;BME280;51342;55.250;37.668;2023-05-01T11:51:35;99192.22;;;9.71;64.20
45369;BME280;51342;55.250;37.668;2023-05-01T11:54:18;99206.97;;;9.57;63.73
45369;BME280;51342;55.250;37.668;2023-05-01T11:56:59;99205.38;;;9.43;63.81
45369;BME280;51342;55.250;37.668;2023-05-01T11:59:30;99202.13;;;9.31;63.45
45369;BME280;51342;55.250;37.668;2023-05-01T12:02:02;99202.50;;;9.22;64.23
45369;BME280;51342;55.250;37.668;2023-05-01T12:04:33;99203.25;;;9.20;64.60
45369;BME280;51342;55.250;37.668;2023-05-01T12:07:05;99215.28;;;9.19;65.23
45369;BME280;51342;55.250;37.668;2023-05-01T12:09:36;99221.13;;;9.17;64.63
45369;BME280;51342;55.250;37.668;2023-05-01T12:12:08;99220.97;;;9.14;64.59
45369;BME280;51342;55.250;37.668;2023-05-01T12:14:39;99232.00;;;9.11;64.42
45369;BME280;51342;55.250;37.668;2023-05-01T12:17:11;99236.84;;;9.05;64.88
45369;BME280;51342;55.250;37.668;2023-05-01T12:19:46;99246.63;;;8.96;64.85
45369;BME280;51342;55.250;37.668;2023-05-01T12:22:21;99251.63;;;8.93;64.94
45369;BME280;51342;55.250;37.668;2023-05-01T12:24:53;99244.44;;;8.87;65.06
45369;BME280;51342;55.250;37.668;2023-05-01T12:27:24;99245.06;;;8.83;64.75
45369;BME280;51342;55.250;37.668;2023-05-01T12:29:56;99255.22;;;8.80;64.96
45369;BME280;51342;55.250;37.668;2023-05-01T12:32:29;99269.88;;;8.81;65.04
45369;BME280;51342;55.250;37.668;2023-05-01T12:35:14;99265.00;;;8.71;64.76
45369;BME280;51342;55.250;37.668;2023-05-01T12:37:46;99271.38;;;8.77;65.08
45369;BME280;51342;55.250;37.668;2023-05-01T12:40:17;99282.25;;;8.72;64.25
45369;BME280;51342;55.250;37.668;2023-05-01T12:42:54;99288.66;;;8.64;64.46
45369;BME280;51342;55.250;37.668;2023-05-01T12:45:26;99287.69;;;8.34;65.51
45369;BME280;51342;55.250;37.668;2023-05-01T12:47:57;99292.63;;;8.44;65.38
45369;BME280;51342;55.250;37.668;2023-05-01T12:50:35;99287.19;;;8.39;65.00
45369;BME280;51342;55.250;37.668;2023-05-01T12:53:08;99307.44;;;8.33;63.52
45369;BME280;51342;55.250;37.668;2023-05-01T12:55:48;99307.94;;;8.13;64.53
45369;BME280;51342;55.250;37.668;2023-05-01T12:58:19;99314.59;;;8.09;65.36
45369;BME280;51342;55.250;37.668;2023-05-01T13:00:53;99311.63;;;8.03;64.99
45369;BME280;51342;55.250;37.668;2023-05-01T13:03:26;99329.50;;;8.00;65.98
45369;BME280;51342;55.250;37.668;2023-05-01T13:06:00;99327.69;;;7.99;66.12
45369;BME280;51342;55.250;37.668;2023-05-01T13:11:16;99350.69;;;7.96;66.50
45369;BME280;51342;55.250;37.668;2023-05-01T13:13:48;99348.72;;;7.92;66.71
45369;BME280;51342;55.250;37.668;2023-05-01T13:16:20;99353.59;;;7.87;66.74
45369;BME280;51342;55.250;37.668;2023-05-01T13:18:52;99350.84;;;7.84;66.43
45369;BME280;51342;55.250;37.668;2023-05-01T13:21:24;99362.72;;;7.82;66.45
45369;BME280;51342;55.250;37.668;2023-05-01T13:23:58;99355.41;;;7.75;67.39
45369;BME280;51342;55.250;37.668;2023-05-01T13:26:31;99371.84;;;7.77;67.36
45369;BME280;51342;55.250;37.668;2023-05-01T13:29:05;99377.09;;;7.79;67.51
45369;BME280;51342;55.250;37.668;2023-05-01T13:31:48;99373.63;;;7.78;67.31
45369;BME280;51342;55.250;37.668;2023-05-01T13:34:24;99373.63;;;7.78;67.57
45369;BME280;51342;55.250;37.668;2023-05-01T13:36:58;99383.69;;;7.88;67.82
45369;BME280;51342;55.250;37.668;2023-05-01T13:39:29;99389.13;;;7.93;68.29
45369;BME280;51342;55.250;37.668;2023-05-01T13:42:01;99386.47;;;7.91;67.83
45369;BME280;51342;55.250;37.668;2023-05-01T13:44:54;99391.63;;;7.91;68.06
45369;BME280;51342;55.250;37.668;2023-05-01T13:47:38;99390.16;;;7.95;68.56
45369;BME280;51342;55.250;37.668;2023-05-01T13:50:14;99389.63;;;8.01;68.23
45369;BME280;51342;55.250;37.668;2023-05-01T13:53:00;99389.81;;;8.04;68.33
45369;BME280;51342;55.250;37.668;2023-05-01T13:55:31;99398.91;;;8.12;68.41
45369;BME280;51342;55.250;37.668;2023-05-01T13:58:03;99396.13;;;8.09;68.55
45369;BME280;51342;55.250;37.668;2023-05-01T14:00:34;99408.34;;;8.11;68.53
45369;BME280;51342;55.250;37.668;2023-05-01T14:03:09;99411.50;;;8.07;68.82
45369;BME280;51342;55.250;37.668;2023-05-01T14:05:41;99408.63;;;8.03;69.24
45369;BME280;51342;55.250;37.668;2023-05-01T14:08:13;99412.09;;;8.03;68.96
45369;BME280;51342;55.250;37.668;2023-05-01T14:10:45;99423.38;;;8.05;69.29
45369;BME280;51342;55.250;37.668;2023-05-01T14:13:16;99422.69;;;8.08;69.01
45369;BME280;51342;55.250;37.668;2023-05-01T14:15:49;99420.72;;;8.04;68.24